Time;durP1;ratioP1;P1;durP2;ratioP2;P2;SDS_P1;SDS_P2;PMS_P1;PMS_P2;Temp;Humidity;BMP_temperature;BMP_pressure;BME280_temperature;BME280_humidity;BME280_pressure;Samples;Min_cycle;Max_cycle;Signal;HPM_P1;HPM_P2
2022/01/13 00:00:55;;;;;;;12.30;4.87;;;7.30;8.00;;;;;;5072496;28;20935;-75
2022/01/13 00:03:21;;;;;;;21.73;5.30;;;7.30;7.60;;;;;;5089182;28;20423;-76
2022/01/13 00:05:46;;;;;;;13.37;4.63;;;7.30;8.30;;;;;;5092863;28;20169;-75
2022/01/13 00:08:12;;;;;;;8.60;5.00;;;7.30;8.90;;;;;;5077433;28;20598;-75
2022/01/13 00:10:38;;;;;;;19.90;5.70;;;7.30;9.10;;;;;;5071471;28;20182;-74
2022/01/13 00:13:07;;;;;;;8.23;4.80;;;7.30;8.30;;;;;;5085335;28;20173;-74
2022/01/13 00:18:14;;;;;;;7.07;4.40;;;7.30;9.10;;;;;;5079835;28;20799;-74
2022/01/13 00:21:14;;;;;;;26.27;6.00;;;7.30;8.70;;;;;;5071721;28;20475;-75
2022/01/13 00:23:46;;;;;;;9.70;4.80;;;7.30;9.20;;;;;;5086714;28;20895;-75
2022/01/13 00:26:21;;;;;;;17.23;4.63;;;7.40;8.80;;;;;;5090416;28;20444;-75
2022/01/13 00:28:50;;;;;;;8.13;5.17;;;7.40;9.20;;;;;;5092763;28;20395;-76
2022/01/13 00:31:18;;;;;;;7.50;4.70;;;7.30;8.30;;;;;;5085651;28;20959;-74
2022/01/13 00:33:46;;;;;;;11.37;5.70;;;7.30;9.20;;;;;;5076361;28;20408;-74
2022/01/13 00:36:12;;;;;;;21.17;5.00;;;7.40;9.50;;;;;;5085557;28;20455;-76
2022/01/13 00:38:38;;;;;;;23.37;7.00;;;7.30;9.20;;;;;;5095520;28;20456;-73
2022/01/13 00:41:04;;;;;;;9.37;6.10;;;7.40;8.90;;;;;;5088000;28;20519;-75
2022/01/13 00:43:31;;;;;;;22.07;6.37;;;7.30;9.10;;;;;;5075264;28;20420;-73
2022/01/13 00:45:57;;;;;;;10.27;5.43;;;7.30;8.60;;;;;;5064390;28;20314;-74
2022/01/13 00:48:22;;;;;;;14.17;4.57;;;7.30;10.00;;;;;;5096125;28;20479;-75
2022/01/13 00:50:48;;;;;;;17.07;5.37;;;7.30;10.00;;;;;;5093716;28;20201;-74
2022/01/13 00:53:14;;;;;;;8.93;5.47;;;7.30;12.00;;;;;;5096171;28;20176;-75
2022/01/13 00:55:58;;;;;;;13.70;4.60;;;7.30;11.90;;;;;;5076070;28;20180;-73
2022/01/13 00:58:24;;;;;;;8.60;5.30;;;7.30;11.10;;;;;;5092408;28;20169;-75
2022/01/13 01:00:49;;;;;;;14.17;6.10;;;7.20;12.50;;;;;;5095219;28;20427;-73
2022/01/13 01:03:15;;;;;;;13.63;6.17;;;7.20;13.10;;;;;;5062172;28;20503;-74
2022/01/13 01:05:41;;;;;;;14.13;5.63;;;7.20;18.40;;;;;;5084884;28;20173;-74
2022/01/13 01:08:09;;;;;;;12.03;5.30;;;7.20;21.10;;;;;;5095941;28;20416;-74
2022/01/13 01:10:34;;;;;;;11.20;5.97;;;7.20;24.30;;;;;;5086818;28;20190;-75
2022/01/13 01:13:10;;;;;;;12.43;5.93;;;7.20;27.90;;;;;;5075548;28;20407;-74
2022/01/13 01:15:35;;;;;;;10.97;5.70;;;7.20;30.00;;;;;;5082767;28;20589;-74
2022/01/13 01:18:08;;;;;;;12.07;5.97;;;7.20;33.10;;;;;;5095168;28;20439;-76
2022/01/13 01:20:46;;;;;;;14.00;5.80;;;7.20;33.40;;;;;;5093145;28;20189;-75
2022/01/13 01:23:17;;;;;;;8.77;5.90;;;7.20;35.80;;;;;;5095755;28;20396;-74
2022/01/13 01:25:48;;;;;;;14.63;6.83;;;7.20;36.80;;;;;;5087849;28;20935;-75
2022/01/13 01:28:22;;;;;;;12.33;7.10;;;7.20;37.10;;;;;;5075260;28;20401;-74
2022/01/13 01:30:50;;;;;;;10.10;5.50;;;7.10;35.90;;;;;;5082230;28;20436;-75
2022/01/13 01:33:18;;;;;;;8.60;6.13;;;7.20;40.10;;;;;;5095341;28;20399;-76
2022/01/13 01:35:44;;;;;;;10.23;6.40;;;7.10;43.90;;;;;;5087927;28;20420;-72
2022/01/13 01:38:10;;;;;;;14.03;6.83;;;7.20;44.30;;;;;;5075217;28;20726;-73
2022/01/13 01:40:36;;;;;;;17.20;6.10;;;7.20;44.30;;;;;;5078660;28;20276;-74
2022/01/13 01:43:01;;;;;;;8.70;5.93;;;7.20;44.50;;;;;;5095300;28;20522;-74
2022/01/13 01:45:32;;;;;;;16.37;7.53;;;7.20;45.10;;;;;;5091824;28;20615;-74
2022/01/13 01:48:02;;;;;;;13.57;6.57;;;7.10;45.70;;;;;;5074940;28;20454;-73
2022/01/13 01:50:34;;;;;;;10.63;6.93;;;7.10;47.00;;;;;;5076158;28;20451;-76
2022/01/13 01:53:00;;;;;;;10.93;7.50;;;7.10;49.40;;;;;;5094570;28;20399;-74
2022/01/13 01:55:26;;;;;;;12.07;6.93;;;7.20;51.00;;;;;;5092814;28;20942;-75
2022/01/13 01:57:52;;;;;;;14.70;7.63;;;7.10;50.00;;;;;;5074580;28;20220;-74
2022/01/13 02:00:20;;;;;;;12.87;6.60;;;7.10;50.90;;;;;;5073608;28;20649;-75
2022/01/13 02:02:46;;;;;;;14.80;6.40;;;7.00;48.10;;;;;;5074669;28;20884;-75
2022/01/13 02:05:12;;;;;;;13.53;6.50;;;7.00;48.40;;;;;;5076863;28;20420;-73
2022/01/13 02:07:38;;;;;;;14.07;7.53;;;6.90;48.20;;;;;;5076121;28;20788;-74
2022/01/13 02:10:05;;;;;;;19.63;8.07;;;7.00;50.60;;;;;;5092155;28;20427;-75
2022/01/13 02:17:39;;;;;;;23.33;7.97;;;6.90;52.90;;;;;;5082800;28;20454;-73
2022/01/13 02:20:06;;;;;;;17.53;7.80;;;6.90;53.10;;;;;;5093450;28;20419;-74
2022/01/13 02:22:32;;;;;;;16.80;8.03;;;6.80;57.00;;;;;;5094716;28;20387;-74
2022/01/13 02:24:58;;;;;;;12.93;7.00;;;6.90;57.70;;;;;;5093697;28;20903;-74
2022/01/13 02:27:24;;;;;;;10.00;7.60;;;6.80;57.60;;;;;;5094428;28;20798;-74
2022/01/13 02:29:50;;;;;;;14.07;8.17;;;6.80;59.70;;;;;;5058232;28;20432;-74
2022/01/13 02:32:16;;;;;;;8.07;5.97;;;6.80;61.10;;;;;;5073996;28;20176;-72
2022/01/13 02:34:42;;;;;;;10.60;6.90;;;6.80;61.20;;;;;;5089515;28;20606;-74
2022/01/13 02:37:08;;;;;;;10.47;7.67;;;6.80;63.80;;;;;;5094197;28;20534;-73
2022/01/13 02:39:34;;;;;;;12.77;7.70;;;6.80;64.80;;;;;;5078969;28;20503;-73
2022/01/13 02:42:02;;;;;;;13.23;7.40;;;6.90;66.10;;;;;;5073878;28;20462;-75
2022/01/13 02:44:30;;;;;;;12.83;7.77;;;6.90;66.70;;;;;;5085964;28;20408;-74
2022/01/13 02:47:09;;;;;;;12.10;6.57;;;6.90;68.10;;;;;;5093599;28;20395;-74
2022/01/13 02:49:35;;;;;;;13.93;8.77;;;6.90;68.20;;;;;;5079812;28;20482;-73
2022/01/13 02:52:02;;;;;;;16.83;7.67;;;6.90;68.20;;;;;;5073069;28;20471;-75
2022/01/13 02:54:28;;;;;;;14.80;8.07;;;6.90;68.20;;;;;;5084813;28;20416;-74
2022/01/13 02:56:53;;;;;;;18.03;6.07;;;6.90;68.20;;;;;;5093757;28;20568;-75
2022/01/13 02:59:19;;;;;;;12.13;6.87;;;6.90;70.10;;;;;;5082998;28;20420;-73
2022/01/13 03:01:45;;;;;;;11.50;7.63;;;6.90;70.00;;;;;;5072905;28;20174;-74
2022/01/13 03:04:12;;;;;;;11.70;7.40;;;6.90;70.30;;;;;;5080926;28;20220;-76
2022/01/13 03:06:40;;;;;;;13.40;7.43;;;7.00;72.30;;;;;;5093495;28;20169;-72
2022/01/13 03:09:08;;;;;;;10.23;7.23;;;7.00;72.80;;;;;;5085758;28;20943;-73
2022/01/13 03:11:37;;;;;;;11.47;7.27;;;7.00;73.10;;;;;;5073280;28;20436;-74
2022/01/13 03:14:05;;;;;;;13.50;7.60;;;7.00;73.10;;;;;;5078910;28;20773;-74
2022/01/13 03:16:31;;;;;;;13.30;7.17;;;7.10;74.00;;;;;;5093545;28;20793;-74
2022/01/13 03:18:57;;;;;;;9.77;5.43;;;7.00;73.60;;;;;;5083729;28;20416;-74
2022/01/13 03:21:23;;;;;;;10.57;6.53;;;7.10;73.90;;;;;;5072981;28;20807;-74
2022/01/13 03:23:50;;;;;;;9.70;7.00;;;7.00;73.20;;;;;;5079513;28;20745;-72
2022/01/13 03:26:16;;;;;;;8.33;4.63;;;7.00;73.90;;;;;;5093341;28;20434;-75
2022/01/13 03:28:51;;;;;;;12.73;6.83;;;7.00;74.20;;;;;;5087182;28;20419;-76
2022/01/13 03:31:22;;;;;;;16.53;7.20;;;7.00;75.80;;;;;;5073127;28;20181;-74
2022/01/13 03:33:49;;;;;;;11.27;7.17;;;7.00;75.00;;;;;;5063702;28;20427;-74
2022/01/13 03:36:15;;;;;;;13.30;7.50;;;7.00;75.20;;;;;;5092650;28;20443;-74
2022/01/13 03:38:41;;;;;;;12.27;7.57;;;7.00;74.20;;;;;;5084294;28;20762;-75
2022/01/13 03:41:06;;;;;;;21.13;7.47;;;7.00;75.20;;;;;;5072996;28;20500;-73
2022/01/13 03:43:35;;;;;;;20.60;8.27;;;7.00;75.60;;;;;;5078476;28;20161;-72
2022/01/13 03:46:00;;;;;;;17.70;7.73;;;6.90;76.10;;;;;;5093235;28;20166;-75
2022/01/13 03:48:26;;;;;;;19.53;8.07;;;7.00;76.40;;;;;;5088318;28;20461;-74
2022/01/13 03:50:52;;;;;;;14.37;7.30;;;7.00;75.20;;;;;;5072058;28;20185;-73
2022/01/13 03:53:26;;;;;;;15.47;7.20;;;7.00;76.20;;;;;;5075067;28;20686;-73
2022/01/13 03:56:29;;;;;;;16.30;7.07;;;7.00;77.30;;;;;;5092720;28;20176;-75
2022/01/13 03:59:34;;;;;;;16.10;6.50;;;6.90;75.60;;;;;;5084642;28;20412;-75
2022/01/13 04:02:10;;;;;;;29.73;7.77;;;6.90;75.80;;;;;;5072833;28;20416;-73
2022/01/13 04:04:42;;;;;;;17.33;7.80;;;7.00;77.70;;;;;;5094930;28;20415;-75
2022/01/13 04:07:07;;;;;;;21.13;8.60;;;7.00;77.80;;;;;;5097287;28;20403;-74
2022/01/13 04:09:33;;;;;;;13.30;7.70;;;7.00;77.80;;;;;;5076802;28;20438;-75
2022/01/13 04:12:03;;;;;;;16.33;8.80;;;7.00;77.80;;;;;;5076824;28;20196;-75
2022/01/13 04:14:37;;;;;;;11.20;7.80;;;7.10;77.90;;;;;;5059326;28;20174;-75
2022/01/13 04:17:03;;;;;;;11.23;8.47;;;7.00;77.10;;;;;;5076587;28;20478;-72
2022/01/13 04:19:29;;;;;;;16.47;7.33;;;7.10;77.90;;;;;;5092765;28;20427;-74
2022/01/13 04:21:55;;;;;;;19.07;7.50;;;7.00;77.20;;;;;;5096818;28;20760;-73
2022/01/13 04:24:20;;;;;;;12.97;8.03;;;7.00;77.50;;;;;;5080939;28;20253;-73
2022/01/13 04:26:47;;;;;;;13.83;8.83;;;7.00;77.40;;;;;;5077673;28;20201;-76
2022/01/13 04:31:40;;;;;;;20.80;8.20;;;7.00;74.90;;;;;;5095751;28;20476;-73
2022/01/13 04:34:07;;;;;;;15.20;7.03;;;7.10;75.00;;;;;;5076295;28;20170;-74
2022/01/13 04:36:32;;;;;;;13.93;8.33;;;7.00;73.80;;;;;;5058408;28;20968;-74
2022/01/13 04:38:58;;;;;;;16.53;7.90;;;7.00;73.10;;;;;;5094085;28;20418;-74
2022/01/13 04:41:35;;;;;;;4.60;3.60;;;6.90;70.10;;;;;;5096434;28;20198;-75
2022/01/13 04:44:05;;;;;;;9.60;7.30;;;6.90;70.80;;;;;;5077355;28;20911;-73
2022/01/13 04:46:31;;;;;;;15.10;6.10;;;6.90;70.30;;;;;;5076210;28;20404;-72
2022/01/13 04:48:57;;;;;;;17.53;8.60;;;6.90;71.00;;;;;;5092040;28;20431;-73
2022/01/13 04:51:23;;;;;;;13.83;8.27;;;6.90;71.10;;;;;;5096201;28;20451;-74
2022/01/13 04:53:48;;;;;;;16.10;8.33;;;6.90;71.70;;;;;;5076167;28;20205;-73
2022/01/13 04:56:26;;;;;;;27.03;8.53;;;6.90;69.70;;;;;;5075882;28;20456;-73
2022/01/13 04:58:53;;;;;;;18.80;7.50;;;6.90;69.00;;;;;;5092739;28;20165;-74
2022/01/13 05:01:18;;;;;;;10.67;6.90;;;6.80;68.10;;;;;;5096011;28;20473;-73
2022/01/13 05:03:44;;;;;;;14.40;7.20;;;6.80;68.90;;;;;;5077605;28;20420;-75
2022/01/13 05:06:10;;;;;;;12.67;7.40;;;6.80;68.20;;;;;;5075808;28;20722;-73
2022/01/13 05:08:35;;;;;;;13.73;8.70;;;6.80;68.40;;;;;;5090265;28;20219;-73
2022/01/13 05:11:01;;;;;;;16.50;8.03;;;6.80;68.10;;;;;;5095709;28;20221;-76
2022/01/13 05:13:27;;;;;;;10.77;7.67;;;6.80;69.50;;;;;;5080961;28;20216;-73
2022/01/13 05:15:54;;;;;;;14.60;8.20;;;6.80;68.70;;;;;;5075091;28;20169;-73
2022/01/13 05:18:28;;;;;;;11.90;7.80;;;6.70;69.40;;;;;;5088387;28;20166;-74
2022/01/13 05:21:02;;;;;;;13.00;7.40;;;6.70;70.00;;;;;;5095186;28;20427;-74
2022/01/13 05:23:28;;;;;;;15.53;7.70;;;6.80;69.70;;;;;;5093767;28;20490;-74
2022/01/13 05:25:53;;;;;;;8.80;6.10;;;6.80;70.30;;;;;;5095642;28;20853;-73
2022/01/13 05:28:19;;;;;;;19.77;8.63;;;6.80;70.90;;;;;;5083120;28;20166;-73
2022/01/13 05:30:45;;;;;;;12.80;8.67;;;6.80;70.50;;;;;;5074273;28;20193;-75
2022/01/13 05:33:10;;;;;;;13.30;8.33;;;6.80;70.10;;;;;;5085079;28;20222;-75
2022/01/13 05:35:36;;;;;;;11.63;7.07;;;6.80;70.10;;;;;;5095320;28;20173;-73
2022/01/13 05:38:07;;;;;;;10.03;7.90;;;6.80;68.10;;;;;;5086885;28;20197;-75
2022/01/13 05:40:33;;;;;;;24.73;8.80;;;6.70;68.00;;;;;;5074241;28;20229;-75
2022/01/13 05:42:59;;;;;;;18.20;8.83;;;6.70;68.90;;;;;;5082082;28;20400;-72
2022/01/13 05:45:29;;;;;;;16.07;8.37;;;6.80;69.90;;;;;;5095204;28;20491;-75
2022/01/13 05:47:59;;;;;;;14.80;8.50;;;6.80;69.00;;;;;;5088729;28;20253;-75
2022/01/13 05:50:26;;;;;;;16.60;8.43;;;6.70;69.00;;;;;;5073557;28;20420;-72
2022/01/13 05:52:52;;;;;;;20.40;10.03;;;6.70;69.90;;;;;;5083228;28;20908;-73
2022/01/13 05:55:18;;;;;;;18.47;9.10;;;6.70;68.00;;;;;;5095039;28;20483;-73
2022/01/13 05:57:44;;;;;;;14.43;8.70;;;6.80;70.80;;;;;;5087252;28;20463;-74
2022/01/13 06:00:14;;;;;;;18.20;9.03;;;6.80;68.10;;;;;;5073832;28;20424;-75
2022/01/13 06:02:39;;;;;;;25.50;9.60;;;6.70;68.50;;;;;;5080688;28;20416;-73
2022/01/13 06:05:07;;;;;;;19.80;10.43;;;6.70;70.10;;;;;;5094268;28;20411;-74
2022/01/13 06:07:33;;;;;;;13.60;9.60;;;6.80;71.40;;;;;;5087164;28;20424;-75
2022/01/13 06:09:58;;;;;;;13.83;8.47;;;6.70;70.30;;;;;;5093236;28;20441;-74
2022/01/13 06:12:32;;;;;;;22.30;8.93;;;6.80;72.30;;;;;;5094812;28;20600;-74
2022/01/13 06:15:02;;;;;;;22.53;9.33;;;6.80;71.50;;;;;;5094095;28;20193;-73
2022/01/13 06:17:28;;;;;;;18.97;8.13;;;6.80;70.20;;;;;;5094486;28;20455;-75
2022/01/13 06:19:55;;;;;;;12.33;8.23;;;6.80;69.80;;;;;;5087946;28;20413;-73
2022/01/13 06:22:22;;;;;;;9.80;7.50;;;6.80;71.20;;;;;;5074249;28;20401;-73
2022/01/13 06:24:48;;;;;;;14.17;8.23;;;6.90;70.70;;;;;;5077496;28;20419;-74
2022/01/13 06:27:14;;;;;;;21.30;9.40;;;6.80;68.30;;;;;;5093582;28;20403;-73
2022/01/13 06:29:40;;;;;;;21.40;9.07;;;6.80;68.90;;;;;;5090626;28;21018;-74
2022/01/13 06:32:06;;;;;;;24.33;9.37;;;6.90;68.20;;;;;;5074087;28;20620;-76
2022/01/13 06:34:32;;;;;;;15.43;9.73;;;6.80;68.10;;;;;;5074306;28;20588;-75
2022/01/13 06:36:58;;;;;;;15.83;8.03;;;6.80;66.80;;;;;;5094143;28;20546;-73
2022/01/13 06:39:23;;;;;;;12.60;8.07;;;6.80;68.10;;;;;;5093579;28;20475;-75
2022/01/13 06:41:49;;;;;;;8.77;5.87;;;6.90;68.60;;;;;;5074667;28;20717;-75
2022/01/13 06:44:14;;;;;;;15.63;8.97;;;6.90;68.40;;;;;;5073257;28;20170;-72
2022/01/13 06:46:40;;;;;;;11.47;6.50;;;6.90;67.30;;;;;;5091271;28;20661;-76
2022/01/13 06:49:06;;;;;;;12.33;7.73;;;7.00;68.20;;;;;;5093158;28;20162;-75
2022/01/13 06:51:31;;;;;;;14.57;6.37;;;7.00;68.10;;;;;;5059917;28;20204;-74
2022/01/13 06:53:57;;;;;;;7.03;6.33;;;7.00;67.50;;;;;;5073701;28;20166;-74
2022/01/13 06:56:24;;;;;;;10.63;5.53;;;7.10;65.50;;;;;;5087211;28;20234;-74
2022/01/13 06:58:51;;;;;;;14.63;6.30;;;7.10;63.40;;;;;;5092227;28;20178;-74
2022/01/13 07:01:17;;;;;;;17.10;7.03;;;7.10;60.90;;;;;;5080771;28;20432;-73
2022/01/13 07:03:43;;;;;;;8.97;6.60;;;7.10;61.00;;;;;;5073011;28;20400;-73
2022/01/13 07:06:08;;;;;;;13.20;7.17;;;7.10;59.30;;;;;;5087311;28;20433;-73
2022/01/13 07:08:34;;;;;;;8.80;5.30;;;7.20;59.60;;;;;;5092893;28;20185;-72
2022/01/13 07:11:03;;;;;;;13.53;5.90;;;7.20;58.00;;;;;;5080466;28;20229;-72
2022/01/13 07:13:29;;;;;;;14.67;6.03;;;7.20;54.60;;;;;;5073340;28;20415;-73
2022/01/13 07:15:55;;;;;;;14.20;6.87;;;7.30;54.90;;;;;;5084653;28;20412;-75
2022/01/13 07:18:21;;;;;;;13.40;4.90;;;7.30;51.30;;;;;;5093451;28;20933;-78
2022/01/13 07:20:48;;;;;;;14.17;5.90;;;7.20;38.80;;;;;;5077319;28;20194;-73
2022/01/13 07:23:14;;;;;;;9.87;5.93;;;7.20;34.40;;;;;;5073122;28;20190;-74
2022/01/13 07:25:39;;;;;;;8.07;6.13;;;7.30;34.60;;;;;;5085941;28;20446;-74
2022/01/13 07:28:05;;;;;;;13.43;6.07;;;7.30;31.30;;;;;;5093337;28;20165;-73
2022/01/13 07:30:32;;;;;;;17.93;6.53;;;7.30;27.40;;;;;;5081027;28;20797;-73
2022/01/13 07:32:58;;;;;;;13.70;6.30;;;7.30;18.60;;;;;;5073134;28;20249;-73
2022/01/13 07:35:24;;;;;;;12.60;5.93;;;7.30;13.70;;;;;;5087861;28;20894;-74
2022/01/13 07:37:50;;;;;;;8.10;6.73;;;7.30;13.00;;;;;;5093034;28;20534;-73
2022/01/13 07:40:17;;;;;;;6.90;5.63;;;7.40;11.10;;;;;;5077878;28;20436;-75
2022/01/13 07:42:47;;;;;;;12.10;6.20;;;7.30;6.50;;;;;;5072983;28;20191;-75
2022/01/13 07:45:15;;;;;;;9.10;6.63;;;7.40;4.70;;;;;;5084969;28;20416;-75
2022/01/13 07:47:40;;;;;;;9.70;6.80;;;7.40;3.10;;;;;;5074866;28;20839;-73
2022/01/13 07:50:09;;;;;;;11.00;7.50;;;7.40;1.00;;;;;;5090246;28;20519;-74
2022/01/13 07:52:34;;;;;;;14.23;6.80;;;7.40;1.00;;;;;;5092959;28;20399;-74
2022/01/13 07:55:00;;;;;;;17.23;6.50;;;7.40;1.00;;;;;;5083187;28;20762;-74
2022/01/13 07:57:26;;;;;;;10.13;6.57;;;7.40;1.00;;;;;;5072184;28;20547;-74
2022/01/13 07:59:56;;;;;;;7.80;5.40;;;7.40;1.00;;;;;;5079393;28;20173;-75
2022/01/13 08:02:22;;;;;;;15.70;7.30;;;7.40;1.00;;;;;;5092994;28;20513;-73
2022/01/13 08:04:49;;;;;;;11.20;6.30;;;7.40;1.00;;;;;;5082113;28;20960;-74
2022/01/13 08:07:15;;;;;;;13.43;8.47;;;7.40;1.00;;;;;;5072660;28;20399;-75
2022/01/13 08:09:41;;;;;;;16.73;7.43;;;7.40;1.00;;;;;;5080646;28;20423;-73
2022/01/13 08:12:07;;;;;;;14.10;7.40;;;7.40;1.00;;;;;;5092908;28;20449;-73
2022/01/13 08:14:33;;;;;;;8.43;6.03;;;7.40;1.00;;;;;;5085269;28;20189;-74
2022/01/13 08:17:00;;;;;;;9.93;5.53;;;7.40;1.00;;;;;;5054275;28;20444;-73
2022/01/13 08:22:10;;;;;;;10.87;6.87;;;7.40;1.00;;;;;;5092586;28;20402;-73
2022/01/13 08:24:36;;;;;;;11.50;7.27;;;7.40;1.00;;;;;;5078564;28;20416;-75
2022/01/13 08:27:02;;;;;;;8.83;6.20;;;7.50;1.00;;;;;;5072486;28;20225;-73
2022/01/13 08:29:27;;;;;;;10.43;6.00;;;7.40;1.00;;;;;;5083328;28;20546;-73
2022/01/13 08:31:53;;;;;;;14.13;6.40;;;7.40;1.00;;;;;;5092025;28;20446;-74
2022/01/13 08:34:19;;;;;;;14.43;6.93;;;7.40;1.00;;;;;;5082236;28;20691;-73
2022/01/13 08:36:45;;;;;;;17.30;5.70;;;7.40;1.00;;;;;;5072284;28;20190;-74
2022/01/13 08:39:11;;;;;;;12.53;6.87;;;7.50;1.00;;;;;;5079908;28;20200;-74
2022/01/13 08:41:38;;;;;;;13.83;7.50;;;7.50;1.00;;;;;;5092571;28;20184;-73
2022/01/13 08:44:04;;;;;;;14.93;4.70;;;7.50;1.00;;;;;;5090702;28;20492;-73
2022/01/13 08:46:30;;;;;;;10.90;6.90;;;7.50;1.00;;;;;;5092763;28;20400;-74
2022/01/13 08:48:55;;;;;;;14.97;6.53;;;7.50;1.00;;;;;;5056033;28;20423;-73
2022/01/13 08:51:21;;;;;;;16.90;5.93;;;7.40;1.00;;;;;;5081268;28;20296;-74
2022/01/13 08:53:47;;;;;;;13.87;7.70;;;7.50;1.00;;;;;;5096377;28;20618;-73
2022/01/13 08:56:14;;;;;;;14.07;7.07;;;7.50;1.00;;;;;;5091059;28;20246;-74
2022/01/13 08:58:39;;;;;;;18.80;7.57;;;7.50;1.00;;;;;;5075272;28;20712;-72
2022/01/13 09:01:07;;;;;;;13.10;6.30;;;7.60;1.00;;;;;;5073800;28;20576;-73
2022/01/13 09:03:36;;;;;;;17.47;8.13;;;7.60;1.00;;;;;;5070642;28;20170;-75
2022/01/13 09:06:03;;;;;;;20.87;9.67;;;7.40;1.00;;;;;;5088714;28;20414;-72
2022/01/13 09:08:29;;;;;;;12.27;7.83;;;7.40;1.00;;;;;;5076508;28;20855;-78
2022/01/13 09:10:55;;;;;;;11.43;8.50;;;7.40;1.00;;;;;;5086249;28;20432;-74
2022/01/13 09:13:20;;;;;;;23.80;8.10;;;7.40;1.00;;;;;;5080734;28;20170;-74
2022/01/13 09:15:52;;;;;;;9.20;8.30;;;7.30;1.00;;;;;;5064864;28;20405;-74
2022/01/13 09:18:29;;;;;;;15.77;9.47;;;7.30;1.00;;;;;;5094635;28;20479;-74
2022/01/13 09:20:55;;;;;;;25.53;9.47;;;7.20;1.00;;;;;;5078823;28;20432;-74
2022/01/13 09:23:21;;;;;;;17.70;9.47;;;7.10;1.00;;;;;;5083319;28;20419;-73
2022/01/13 09:25:46;;;;;;;22.70;10.13;;;7.20;1.00;;;;;;5073994;28;20435;-74
2022/01/13 09:28:13;;;;;;;18.40;9.70;;;7.20;1.00;;;;;;5088109;28;20257;-75
2022/01/13 09:30:39;;;;;;;17.43;8.73;;;7.20;1.00;;;;;;5086696;28;20198;-74
2022/01/13 09:33:06;;;;;;;11.73;7.37;;;7.20;1.00;;;;;;5092926;28;20423;-74
2022/01/13 09:35:32;;;;;;;18.83;8.83;;;7.40;1.00;;;;;;5093732;28;20374;-75
2022/01/13 09:37:58;;;;;;;17.23;7.80;;;7.40;1.00;;;;;;5074781;28;20452;-73
2022/01/13 09:40:24;;;;;;;25.87;11.07;;;7.30;1.00;;;;;;5073964;28;20797;-75
2022/01/13 09:42:50;;;;;;;16.47;8.87;;;7.30;1.00;;;;;;5089147;28;20428;-76
2022/01/13 09:45:17;;;;;;;23.00;10.17;;;7.30;1.00;;;;;;5085920;28;20162;-75
2022/01/13 09:47:44;;;;;;;12.77;8.47;;;7.30;1.00;;;;;;5078459;28;20451;-75
2022/01/13 09:50:13;;;;;;;19.03;9.30;;;7.30;1.00;;;;;;5074452;28;20495;-73
2022/01/13 09:52:40;;;;;;;17.33;8.87;;;7.40;1.00;;;;;;5089909;28;20422;-74
2022/01/13 09:55:08;;;;;;;22.13;9.80;;;7.40;1.00;;;;;;5094831;28;20441;-75
2022/01/13 09:57:33;;;;;;;20.37;9.43;;;7.40;1.00;;;;;;5079114;28;20539;-74
2022/01/13 10:00:00;;;;;;;14.90;7.50;;;7.50;1.00;;;;;;5073960;28;20495;-74
2022/01/13 10:02:26;;;;;;;14.60;7.27;;;7.50;1.00;;;;;;5087721;28;20503;-75
2022/01/13 10:04:54;;;;;;;21.90;10.10;;;7.50;1.00;;;;;;5094989;28;20833;-74
2022/01/13 10:07:44;;;;;;;14.43;7.57;;;7.50;1.00;;;;;;5082233;28;20412;-76
2022/01/13 10:10:14;;;;;;;14.33;8.23;;;7.60;1.00;;;;;;5073624;28;20805;-75
2022/01/13 10:12:43;;;;;;;9.47;5.83;;;7.60;1.00;;;;;;5084945;28;20422;-74
2022/01/13 10:18:05;;;;;;;15.80;8.20;;;7.60;1.00;;;;;;5094608;28;20462;-73
2022/01/13 10:20:32;;;;;;;15.60;7.10;;;7.60;1.00;;;;;;5075966;28;20436;-73
2022/01/13 10:23:07;;;;;;;17.93;9.17;;;7.60;1.00;;;;;;5074399;28;20397;-73
2022/01/13 10:25:38;;;;;;;17.20;7.30;;;7.70;1.00;;;;;;5091260;28;20926;-74
2022/01/13 10:28:23;;;;;;;14.30;7.10;;;7.80;1.00;;;;;;5094170;28;20447;-73
2022/01/13 10:30:51;;;;;;;15.27;7.43;;;7.80;1.00;;;;;;5074255;28;20433;-73
2022/01/13 10:33:21;;;;;;;28.27;8.60;;;7.80;1.00;;;;;;5073545;28;20451;-73
2022/01/13 10:35:49;;;;;;;15.83;7.90;;;7.80;1.00;;;;;;5090803;28;20412;-74
2022/01/13 10:38:16;;;;;;;18.10;7.90;;;7.80;1.00;;;;;;5094237;28;20799;-75
2022/01/13 10:40:45;;;;;;;14.43;8.43;;;7.80;1.00;;;;;;5091414;28;20430;-74
2022/01/13 10:43:11;;;;;;;27.13;8.63;;;7.80;1.00;;;;;;5094201;28;20423;-75
2022/01/13 10:45:43;;;;;;;14.53;6.03;;;7.80;1.00;;;;;;5078707;28;20444;-74
2022/01/13 10:48:18;;;;;;;22.73;6.97;;;7.80;1.00;;;;;;5073981;28;20407;-73
2022/01/13 10:50:54;;;;;;;20.33;7.97;;;7.80;1.00;;;;;;5087891;28;20462;-74
2022/01/13 10:53:34;;;;;;;22.90;6.60;;;7.80;1.00;;;;;;5093887;28;20395;-73
2022/01/13 10:56:12;;;;;;;15.60;6.73;;;7.80;1.00;;;;;;5076659;28;20420;-74
2022/01/13 10:58:49;;;;;;;16.03;6.03;;;7.80;1.00;;;;;;5072069;28;20867;-74
2022/01/13 11:01:15;;;;;;;12.43;6.20;;;7.90;1.00;;;;;;5088759;28;20475;-74
2022/01/13 11:03:43;;;;;;;9.73;4.40;;;7.90;1.00;;;;;;5081450;28;20413;-75
2022/01/13 11:06:10;;;;;;;6.33;4.60;;;7.90;1.00;;;;;;5073413;28;20746;-73
2022/01/13 11:08:40;;;;;;;7.33;4.07;;;7.90;1.00;;;;;;5082809;28;20530;-75
2022/01/13 11:11:17;;;;;;;9.03;4.10;;;8.00;1.00;;;;;;5093517;28;20423;-76
2022/01/13 11:13:53;;;;;;;11.13;4.73;;;8.00;1.00;;;;;;5082012;28;20423;-76
2022/01/13 11:16:23;;;;;;;8.33;4.17;;;8.10;1.00;;;;;;5072906;28;20395;-75
2022/01/13 11:18:49;;;;;;;6.33;3.77;;;8.10;1.00;;;;;;5082840;28;20432;-76
2022/01/13 11:21:15;;;;;;;5.50;3.70;;;8.10;1.00;;;;;;5075364;28;21035;-75
2022/01/13 11:23:48;;;;;;;6.60;4.00;;;8.20;1.00;;;;;;5084033;28;20508;-76
2022/01/13 11:26:15;;;;;;;12.00;3.73;;;8.20;1.00;;;;;;5073155;28;20404;-75
2022/01/13 11:28:42;;;;;;;5.13;2.80;;;8.20;1.00;;;;;;5079651;28;20511;-75
2022/01/13 11:31:09;;;;;;;7.40;4.20;;;8.20;1.00;;;;;;5093276;28;20414;-74
2022/01/13 11:33:37;;;;;;;15.03;3.20;;;8.20;1.00;;;;;;5086210;28;20424;-74
2022/01/13 11:36:03;;;;;;;7.97;3.83;;;8.30;1.00;;;;;;5072633;28;20434;-74
2022/01/13 11:38:30;;;;;;;8.77;3.60;;;8.30;1.00;;;;;;5077232;28;20507;-79
2022/01/13 11:41:06;;;;;;;7.73;3.33;;;8.30;1.00;;;;;;5093182;28;20412;-76
2022/01/13 11:43:41;;;;;;;8.20;3.13;;;8.40;1.00;;;;;;5083837;28;20830;-76
2022/01/13 11:46:20;;;;;;;10.73;2.83;;;8.40;1.00;;;;;;5073056;28;20726;-74
2022/01/13 11:49:00;;;;;;;8.73;3.40;;;8.40;1.00;;;;;;5082334;28;20419;-74
2022/01/13 11:51:39;;;;;;;16.10;3.83;;;8.50;1.00;;;;;;5093142;28;20416;-74
2022/01/13 11:54:05;;;;;;;12.77;3.60;;;8.50;1.00;;;;;;5080413;28;20844;-75
2022/01/13 11:56:30;;;;;;;7.43;3.30;;;8.50;1.00;;;;;;5072130;28;20480;-75
2022/01/13 11:58:57;;;;;;;5.53;3.07;;;8.50;1.00;;;;;;5067887;28;20418;-73
2022/01/13 12:01:29;;;;;;;12.20;3.03;;;8.50;1.00;;;;;;5093021;28;20189;-76
2022/01/13 12:03:58;;;;;;;3.40;2.50;;;8.50;1.00;;;;;;5079094;28;20425;-75
2022/01/13 12:06:40;;;;;;;7.17;2.83;;;8.50;1.00;;;;;;5072657;28;20464;-74
2022/01/13 12:09:09;;;;;;;6.43;3.20;;;8.50;1.00;;;;;;5071985;28;20440;-74
2022/01/13 12:11:45;;;;;;;2.87;2.67;;;8.50;1.00;;;;;;5073002;28;20425;-74
2022/01/13 12:14:29;;;;;;;9.33;3.53;;;8.50;1.00;;;;;;5073888;28;20987;-76
2022/01/13 12:17:23;;;;;;;5.27;2.67;;;8.50;1.00;;;;;;5072155;28;20462;-74
2022/01/13 12:19:51;;;;;;;17.40;4.27;;;8.50;1.00;;;;;;5092013;28;20405;-75
2022/01/13 12:22:41;;;;;;;9.40;3.67;;;8.50;1.00;;;;;;5091236;28;20416;-76
2022/01/13 12:25:09;;;;;;;9.33;3.57;;;8.50;1.00;;;;;;5094443;28;20403;-75
2022/01/13 12:27:45;;;;;;;7.67;3.47;;;8.50;1.00;;;;;;5092005;28;20563;-76
2022/01/13 12:30:14;;;;;;;6.53;3.10;;;8.40;1.00;;;;;;5075679;28;20424;-74
2022/01/13 12:32:44;;;;;;;11.03;3.30;;;8.50;1.00;;;;;;5080452;28;20416;-73
2022/01/13 12:35:13;;;;;;;19.03;3.20;;;8.60;1.00;;;;;;5096454;28;20400;-75
2022/01/13 12:37:40;;;;;;;13.50;3.47;;;8.50;1.00;;;;;;5091957;28;20456;-76
2022/01/13 12:40:18;;;;;;;5.60;3.37;;;8.50;1.00;;;;;;5075530;28;20423;-76
2022/01/13 12:42:51;;;;;;;7.93;3.70;;;8.50;1.00;;;;;;5079817;28;20420;-76
2022/01/13 12:45:28;;;;;;;12.10;2.97;;;8.50;1.00;;;;;;5097332;28;20436;-76
2022/01/13 12:48:08;;;;;;;4.07;3.20;;;8.50;1.00;;;;;;5091726;28;20498;-74
2022/01/13 12:50:40;;;;;;;12.03;3.90;;;8.50;1.00;;;;;;5075232;28;20420;-76
2022/01/13 12:53:13;;;;;;;5.87;3.70;;;8.50;1.00;;;;;;5081362;28;20510;-74
2022/01/13 12:55:42;;;;;;;6.70;3.13;;;8.50;1.00;;;;;;5096045;28;20422;-76
2022/01/13 12:58:08;;;;;;;13.13;4.43;;;8.50;1.00;;;;;;5090309;28;20463;-75
2022/01/13 13:00:35;;;;;;;9.27;3.77;;;8.50;1.00;;;;;;5074916;28;20430;-74
2022/01/13 13:03:06;;;;;;;11.57;3.80;;;8.50;1.00;;;;;;5079636;28;20512;-76
2022/01/13 13:05:37;;;;;;;6.37;3.10;;;8.40;1.00;;;;;;5076152;28;20464;-75
2022/01/13 13:08:03;;;;;;;3.90;2.80;;;8.40;1.00;;;;;;5082657;28;20506;-74
2022/01/13 13:10:29;;;;;;;8.17;3.33;;;8.40;1.00;;;;;;5095145;28;20519;-76
2022/01/13 13:12:57;;;;;;;5.30;2.90;;;8.30;1.00;;;;;;5093808;28;20455;-76
2022/01/13 13:17:50;;;;;;;14.07;3.87;;;8.40;1.00;;;;;;5094327;28;20459;-75